Time;durP1;ratioP1;P1;durP2;ratioP2;P2;SDS_P1;SDS_P2;PMS_P1;PMS_P2;Temp;Humidity;BMP_temperature;BMP_pressure;BME280_temperature;BME280_humidity;BME280_pressure;Samples;Min_cycle;Max_cycle;Signal;HPM_P1;HPM_P2
2021/12/26 00:00:10;;;;;;;21.03;8.47;;;;;;;-6.83;95.65;97045.03;5071359;28;20764;-60
2021/12/26 00:02:38;;;;;;;33.40;10.10;;;;;;;-6.83;96.23;97042.50;5070418;28;20686;-60
2021/12/26 00:05:07;;;;;;;21.00;9.63;;;;;;;-6.82;95.80;97039.06;5069465;28;20687;-60
2021/12/26 00:07:35;;;;;;;25.53;9.90;;;;;;;-6.81;95.67;97044.16;5071432;28;20773;-61
2021/12/26 00:10:03;;;;;;;16.17;7.77;;;;;;;-6.87;96.19;97049.34;5071225;28;20286;-61
2021/12/26 00:12:30;;;;;;;20.57;8.03;;;;;;;-6.89;96.02;97045.97;5071524;28;20287;-61
2021/12/26 00:14:58;;;;;;;25.17;8.20;;;;;;;-6.86;96.04;97051.06;5071461;28;20295;-61
2021/12/26 00:17:25;;;;;;;23.43;8.67;;;;;;;-6.92;95.82;97040.91;5071738;28;20360;-61
2021/12/26 00:19:52;;;;;;;20.27;8.50;;;;;;;-6.94;96.15;97050.28;5069880;28;20305;-60
2021/12/26 00:22:19;;;;;;;23.63;10.03;;;;;;;-7.01;96.50;97055.53;5071500;28;20291;-60
2021/12/26 00:24:47;;;;;;;24.90;9.13;;;;;;;-7.07;96.36;97061.56;5071141;28;20305;-60
2021/12/26 00:27:14;;;;;;;19.57;9.83;;;;;;;-7.19;96.33;97061.72;5071188;28;20298;-60
2021/12/26 00:29:41;;;;;;;35.07;10.73;;;;;;;-7.14;96.81;97054.84;5071002;28;20304;-61
2021/12/26 00:32:08;;;;;;;32.00;9.83;;;;;;;-7.10;96.85;97059.03;5071044;28;20377;-61
2021/12/26 00:34:37;;;;;;;23.03;9.37;;;;;;;-7.21;96.37;97060.88;5070872;28;20290;-61
2021/12/26 00:37:05;;;;;;;25.70;10.37;;;;;;;-7.36;96.80;97060.22;5071159;28;20299;-60
2021/12/26 00:39:33;;;;;;;20.57;9.57;;;;;;;-7.35;97.40;97052.53;5071150;28;20340;-59
2021/12/26 00:42:01;;;;;;;21.43;8.93;;;;;;;-7.36;97.07;97055.09;5071006;28;20282;-60
2021/12/26 00:44:28;;;;;;;24.60;9.30;;;;;;;-7.45;97.08;97060.34;5074279;28;20635;-60
2021/12/26 00:46:55;;;;;;;21.97;8.77;;;;;;;-7.57;97.44;97068.97;5073859;28;20293;-60
2021/12/26 00:49:23;;;;;;;22.67;8.63;;;;;;;-7.63;98.06;97069.06;5074978;28;20297;-61
2021/12/26 00:51:50;;;;;;;20.97;8.67;;;;;;;-7.70;97.94;97062.34;5075161;28;20294;-60
2021/12/26 00:54:20;;;;;;;25.53;9.00;;;;;;;-7.74;98.48;97070.03;5075043;28;20287;-60
2021/12/26 00:56:47;;;;;;;21.57;9.90;;;;;;;-7.76;98.36;97062.38;5074942;28;20313;-60
2021/12/26 00:59:16;;;;;;;25.40;8.53;;;;;;;-7.77;98.21;97063.25;5075109;28;20290;-61
2021/12/26 01:01:43;;;;;;;21.77;9.40;;;;;;;-7.72;98.84;97070.88;5073432;28;20310;-60
2021/12/26 01:04:11;;;;;;;21.33;9.73;;;;;;;-7.74;98.46;97077.69;5074102;28;20819;-59
2021/12/26 01:06:39;;;;;;;28.47;10.63;;;;;;;-7.72;98.46;97074.25;5073129;28;20711;-60
2021/12/26 01:09:10;;;;;;;22.93;9.67;;;;;;;-7.72;98.67;97069.16;5073602;28;20290;-59
2021/12/26 01:11:41;;;;;;;34.37;10.97;;;;;;;-7.74;98.71;97063.22;5071647;28;20309;-60
2021/12/26 01:14:13;;;;;;;38.90;10.10;;;;;;;-7.88;98.97;97067.63;5072115;28;20282;-59
2021/12/26 01:17:12;;;;;;;19.97;8.63;;;;;;;-7.90;99.31;97068.50;5073857;28;20720;-60
2021/12/26 01:20:02;;;;;;;33.73;11.27;;;;;;;-7.93;99.65;97058.31;5073901;28;20298;-60
2021/12/26 01:22:30;;;;;;;21.47;9.33;;;;;;;-7.88;99.84;97056.56;5072116;28;20286;-60
2021/12/26 01:25:06;;;;;;;25.23;8.97;;;;;;;-7.93;99.64;97059.16;5073189;28;20322;-60
2021/12/26 01:27:34;;;;;;;29.87;11.07;;;;;;;-8.06;99.55;97057.59;5072211;28;20378;-59
2021/12/26 01:30:01;;;;;;;26.50;10.87;;;;;;;-7.99;100.00;97060.91;5073040;28;20343;-60
2021/12/26 01:32:30;;;;;;;27.13;10.07;;;;;;;-8.04;100.00;97055.88;5056190;28;20313;-60
2021/12/26 01:35:06;;;;;;;24.73;9.17;;;;;;;-8.08;100.00;97054.19;5073137;28;20295;-60
2021/12/26 01:37:49;;;;;;;24.17;10.73;;;;;;;-8.07;100.00;97053.34;5073206;28;20314;-60
2021/12/26 01:40:41;;;;;;;25.50;10.17;;;;;;;-7.95;100.00;97052.34;5073108;28;20524;-59
2021/12/26 01:43:26;;;;;;;24.93;9.67;;;;;;;-8.00;100.00;97052.44;5073433;28;20297;-60
2021/12/26 01:46:00;;;;;;;19.60;9.70;;;;;;;-8.05;100.00;97054.16;5073066;28;20301;-60
2021/12/26 01:48:28;;;;;;;27.37;10.37;;;;;;;-8.03;100.00;97054.16;5072909;28;20287;-60
2021/12/26 01:50:56;;;;;;;27.60;9.97;;;;;;;-8.09;100.00;97055.06;5056174;28;20291;-60
2021/12/26 01:53:26;;;;;;;25.00;9.70;;;;;;;-8.16;100.00;97068.72;5073209;28;20298;-60
2021/12/26 01:55:55;;;;;;;18.63;8.43;;;;;;;-8.14;100.00;97068.72;5073251;28;20305;-60
2021/12/26 01:58:25;;;;;;;26.97;10.13;;;;;;;-8.08;100.00;97076.34;5072519;28;20318;-61
2021/12/26 02:00:56;;;;;;;21.30;7.97;;;;;;;-8.07;100.00;97071.22;5072569;28;20298;-61
2021/12/26 02:03:23;;;;;;;19.40;8.73;;;;;;;-8.13;100.00;97073.81;5074532;28;20293;-60
2021/12/26 02:05:52;;;;;;;19.03;8.00;;;;;;;-8.24;100.00;97067.94;5073225;28;20324;-60
2021/12/26 02:08:19;;;;;;;35.43;9.63;;;;;;;-8.32;100.00;97074.84;5072832;28;20301;-61
2021/12/26 02:10:48;;;;;;;24.80;9.50;;;;;;;-8.26;100.00;97076.50;5056054;28;20629;-61
2021/12/26 02:13:15;;;;;;;21.87;8.63;;;;;;;-8.16;100.00;97071.28;5072002;28;20295;-60
2021/12/26 02:15:42;;;;;;;30.47;10.10;;;;;;;-8.34;100.00;97079.09;5072204;28;20290;-60
2021/12/26 02:18:13;;;;;;;21.23;8.17;;;;;;;-8.52;100.00;97076.66;5072644;28;20324;-60
2021/12/26 02:20:57;;;;;;;23.13;8.83;;;;;;;-8.61;100.00;97078.47;5074074;28;20283;-60
2021/12/26 02:23:32;;;;;;;20.83;9.80;;;;;;;-8.57;100.00;97070.78;5072481;28;20321;-60
2021/12/26 02:28:48;;;;;;;27.47;8.97;;;;;;;-8.74;100.00;97079.44;5072177;28;20790;-60
2021/12/26 02:31:17;;;;;;;21.60;8.63;;;;;;;-8.71;100.00;97079.41;5072139;28;20389;-60
2021/12/26 02:33:44;;;;;;;18.73;7.33;;;;;;;-8.76;100.00;97081.13;5072012;28;20322;-60
2021/12/26 02:36:13;;;;;;;22.30;9.17;;;;;;;-8.74;100.00;97084.53;5073229;28;20883;-60
2021/12/26 02:38:40;;;;;;;23.83;9.00;;;;;;;-8.65;100.00;97084.47;5073389;28;20286;-60
2021/12/26 02:41:07;;;;;;;24.63;9.53;;;;;;;-8.64;100.00;97081.91;5071681;28;20704;-60
2021/12/26 02:43:35;;;;;;;22.67;8.57;;;;;;;-8.61;100.00;97081.03;5071933;28;20334;-60
2021/12/26 02:46:06;;;;;;;20.00;8.30;;;;;;;-8.58;100.00;97079.28;5070879;28;20295;-60
2021/12/26 02:48:35;;;;;;;19.33;8.63;;;;;;;-8.58;100.00;97084.38;5071536;28;20811;-61
2021/12/26 02:51:03;;;;;;;25.07;8.63;;;;;;;-8.60;100.00;97078.44;5073052;28;20283;-59
2021/12/26 02:53:32;;;;;;;21.63;9.17;;;;;;;-8.56;100.00;97082.66;5071559;28;20294;-60
2021/12/26 02:56:00;;;;;;;19.90;9.17;;;;;;;-8.62;100.00;97077.66;5072730;28;20830;-61
2021/12/26 02:58:28;;;;;;;19.10;8.10;;;;;;;-8.73;100.00;97079.44;5071717;28;20368;-61
2021/12/26 03:01:00;;;;;;;25.27;8.40;;;;;;;-8.70;100.00;97091.31;5071353;28;20306;-61
2021/12/26 03:03:27;;;;;;;21.30;8.30;;;;;;;-8.64;100.00;97096.38;5072379;28;20348;-61
2021/12/26 03:05:57;;;;;;;19.07;8.13;;;;;;;-8.63;100.00;97096.34;5070925;28;20767;-60
2021/12/26 03:08:24;;;;;;;23.77;8.00;;;;;;;-8.64;100.00;97104.84;5071455;28;20287;-61
2021/12/26 03:10:53;;;;;;;23.43;9.13;;;;;;;-8.71;100.00;97103.19;5073038;28;20297;-61
2021/12/26 03:13:21;;;;;;;22.27;9.60;;;;;;;-8.72;100.00;97109.16;5069341;28;20297;-61
2021/12/26 03:15:49;;;;;;;21.93;8.73;;;;;;;-8.79;100.00;97107.50;5068744;28;20377;-60
2021/12/26 03:18:17;;;;;;;20.00;9.10;;;;;;;-8.80;100.00;97099.84;5071125;28;20390;-60
2021/12/26 03:20:48;;;;;;;26.37;10.77;;;;;;;-8.82;100.00;97104.97;5072280;28;20373;-60
2021/12/26 03:23:17;;;;;;;23.60;9.47;;;;;;;-8.82;100.00;97110.06;5072189;28;20381;-60
2021/12/26 03:25:46;;;;;;;25.47;8.93;;;;;;;-8.86;100.00;97105.84;5071124;28;20291;-59
2021/12/26 03:28:15;;;;;;;23.93;9.93;;;;;;;-8.88;100.00;97112.66;5071491;28;20310;-59
2021/12/26 03:30:42;;;;;;;24.67;9.93;;;;;;;-8.87;100.00;97104.16;5071472;28;20282;-59
2021/12/26 03:33:12;;;;;;;27.43;10.80;;;;;;;-8.90;100.00;97116.09;5071795;28;20376;-59
2021/12/26 03:35:40;;;;;;;15.33;7.87;;;;;;;-8.88;100.00;97117.78;5070741;28;20298;-60
2021/12/26 03:38:09;;;;;;;25.03;11.60;;;;;;;-8.85;100.00;97114.34;5070708;28;20303;-61
2021/12/26 03:40:54;;;;;;;27.17;9.80;;;;;;;-8.89;100.00;97113.50;5072479;28;20294;-60
2021/12/26 03:43:23;;;;;;;26.27;9.33;;;;;;;-8.94;100.00;97117.78;5070833;28;20283;-60
2021/12/26 03:45:53;;;;;;;21.43;8.57;;;;;;;-8.95;100.00;97113.56;5070772;28;20283;-60
2021/12/26 03:48:21;;;;;;;25.10;9.37;;;;;;;-8.93;100.00;97119.47;5071790;28;20283;-59
2021/12/26 03:50:49;;;;;;;18.73;8.83;;;;;;;-8.92;100.00;97115.25;5070496;28;20720;-60
2021/12/26 03:53:16;;;;;;;27.03;10.03;;;;;;;-9.00;100.00;97122.09;5070360;28;20774;-60
2021/12/26 03:55:47;;;;;;;22.83;9.70;;;;;;;-8.98;100.00;97122.91;5070763;28;20767;-60
2021/12/26 03:58:16;;;;;;;21.07;9.50;;;;;;;-8.98;100.00;97131.41;5070115;28;20401;-60
2021/12/26 04:00:47;;;;;;;26.17;9.87;;;;;;;-9.00;100.00;97133.09;5071343;28;20306;-60
2021/12/26 04:03:16;;;;;;;19.13;9.57;;;;;;;-8.94;100.00;97135.63;5070695;28;20313;-60
2021/12/26 04:05:53;;;;;;;23.00;10.30;;;;;;;-9.06;100.00;97129.75;5070455;28;20044;-60
2021/12/26 04:08:20;;;;;;;22.73;9.43;;;;;;;-9.13;100.00;97134.03;5070238;28;20381;-60
2021/12/26 04:10:48;;;;;;;28.90;9.53;;;;;;;-9.08;100.00;97134.84;5064837;28;20290;-60
2021/12/26 04:13:16;;;;;;;23.57;10.27;;;;;;;-9.12;100.00;97130.63;5070061;28;20381;-61
2021/12/26 04:15:46;;;;;;;36.17;10.93;;;;;;;-9.16;100.00;97125.53;5070483;28;20287;-60
2021/12/26 04:18:14;;;;;;;27.93;11.47;;;;;;;-9.17;100.00;97126.41;5069010;28;20402;-60
2021/12/26 04:20:42;;;;;;;30.47;11.17;;;;;;;-9.21;100.00;97125.56;5069413;28;20287;-60
2021/12/26 04:23:09;;;;;;;32.90;12.03;;;;;;;-9.27;100.00;97123.03;5070803;28;20278;-61
2021/12/26 04:25:36;;;;;;;26.50;11.33;;;;;;;-9.32;100.00;97127.31;5070346;28;20352;-60
2021/12/26 04:28:03;;;;;;;34.10;13.30;;;;;;;-9.35;100.00;97132.41;5070236;28;20290;-60
2021/12/26 04:30:30;;;;;;;33.40;12.83;;;;;;;-9.28;100.00;97134.09;5070251;28;20338;-59
2021/12/26 04:32:58;;;;;;;36.20;14.87;;;;;;;-9.33;100.00;97130.69;5071153;28;21238;-59
2021/12/26 04:35:25;;;;;;;36.17;13.83;;;;;;;-9.37;100.00;97131.56;5069882;28;20286;-59
2021/12/26 04:37:54;;;;;;;37.77;12.90;;;;;;;-9.32;100.00;97132.41;5070175;28;20314;-60
2021/12/26 04:40:22;;;;;;;42.47;15.57;;;;;;;-9.33;100.00;97133.25;5069913;28;20366;-60
2021/12/26 04:43:08;;;;;;;39.83;14.73;;;;;;;-9.32;100.00;97123.91;5068530;28;20628;-60
2021/12/26 04:45:58;;;;;;;41.17;14.20;;;;;;;-9.37;100.00;97136.66;5067847;28;20294;-60
2021/12/26 04:48:58;;;;;;;40.50;14.90;;;;;;;-9.40;100.00;97140.94;5059066;28;20635;-60
2021/12/26 04:51:25;;;;;;;42.13;14.83;;;;;;;-9.42;100.00;97138.38;5069692;28;20309;-60
2021/12/26 04:53:59;;;;;;;36.53;13.73;;;;;;;-9.42;100.00;97140.06;5069877;28;20381;-60
2021/12/26 04:56:28;;;;;;;35.97;14.57;;;;;;;-9.43;100.00;97141.78;5069381;28;20298;-60
2021/12/26 04:58:54;;;;;;;41.60;15.07;;;;;;;-9.49;100.00;97157.06;5071041;28;20309;-60
2021/12/26 05:01:21;;;;;;;34.73;14.30;;;;;;;-9.55;100.00;97146.94;5070553;28;20310;-61
2021/12/26 05:03:49;;;;;;;39.63;16.13;;;;;;;-9.56;100.00;97150.31;5070977;28;20291;-60
2021/12/26 05:06:17;;;;;;;41.30;15.43;;;;;;;-9.71;100.00;97155.44;5071165;28;20322;-60
2021/12/26 05:08:44;;;;;;;39.00;15.43;;;;;;;-9.69;100.00;97163.06;5069528;28;20283;-59
2021/12/26 05:11:11;;;;;;;47.77;16.37;;;;;;;-9.59;100.00;97163.03;5070981;28;20313;-60
2021/12/26 05:13:38;;;;;;;41.73;17.43;;;;;;;-9.49;100.00;97164.72;5070428;28;20373;-59
2021/12/26 05:16:05;;;;;;;41.03;17.90;;;;;;;-9.44;100.00;97149.44;5071136;28;20644;-59
2021/12/26 05:18:33;;;;;;;50.63;16.90;;;;;;;-9.41;100.00;97154.53;5069803;28;20981;-60
2021/12/26 05:21:04;;;;;;;44.10;17.03;;;;;;;-9.65;100.00;97154.56;5069711;28;20344;-61
2021/12/26 05:23:32;;;;;;;40.50;15.03;;;;;;;-9.74;100.00;97159.69;5069429;28;20279;-59
2021/12/26 05:26:00;;;;;;;37.70;14.83;;;;;;;-9.77;100.00;97169.88;5069796;28;20390;-60
2021/12/26 05:28:30;;;;;;;34.90;13.87;;;;;;;-9.83;100.00;97172.41;5069250;28;20816;-59
2021/12/26 05:30:58;;;;;;;43.50;14.97;;;;;;;-9.75;100.00;97178.34;5073167;28;20295;-60
2021/12/26 05:33:29;;;;;;;39.13;13.63;;;;;;;-9.59;100.00;97178.31;5073313;28;20286;-60
2021/12/26 05:36:00;;;;;;;38.20;14.50;;;;;;;-9.50;100.00;97172.38;5073016;28;20723;-60
2021/12/26 05:38:28;;;;;;;34.63;12.97;;;;;;;-9.48;100.00;97175.78;5072706;28;20628;-59
2021/12/26 05:40:56;;;;;;;29.30;11.77;;;;;;;-9.56;100.00;97174.94;5072911;28;20297;-60
2021/12/26 05:43:23;;;;;;;35.40;14.57;;;;;;;-9.64;100.00;97181.72;5073231;28;20287;-60
2021/12/26 05:45:51;;;;;;;32.10;12.10;;;;;;;-9.74;100.00;97180.88;5073629;28;20294;-59
2021/12/26 05:48:20;;;;;;;27.03;12.67;;;;;;;-9.67;100.00;97180.03;5073139;28;20348;-61
2021/12/26 05:50:48;;;;;;;32.10;11.87;;;;;;;-9.55;100.00;97182.59;5072774;28;20639;-60
2021/12/26 05:53:35;;;;;;;34.47;14.10;;;;;;;-9.65;100.00;97183.44;5042868;28;20306;-60
2021/12/26 05:56:06;;;;;;;39.30;12.93;;;;;;;-9.64;100.00;97191.91;5072663;28;20771;-61
2021/12/26 05:58:34;;;;;;;35.30;13.63;;;;;;;-9.61;100.00;97197.88;5072368;28;20795;-60
2021/12/26 06:01:02;;;;;;;50.63;15.63;;;;;;;-9.63;100.00;97197.00;5055601;28;20390;-60
2021/12/26 06:03:29;;;;;;;46.37;15.33;;;;;;;-9.80;100.00;97206.38;5072657;28;20759;-59
2021/12/26 06:05:55;;;;;;;39.60;15.20;;;;;;;-9.59;100.00;97206.34;5072496;28;20301;-59
2021/12/26 06:08:37;;;;;;;34.13;14.47;;;;;;;-9.57;100.00;97209.75;5074889;28;20322;-59
2021/12/26 06:11:19;;;;;;;31.50;12.68;;;;;;;-9.63;100.00;97207.19;5073406;28;20356;-60
2021/12/26 06:13:47;;;;;;;47.13;13.93;;;;;;;-9.66;100.00;97209.78;5072457;28;20047;-60
2021/12/26 06:16:16;;;;;;;33.37;14.43;;;;;;;-9.64;100.00;97214.84;5072180;28;20404;-60
2021/12/26 06:18:43;;;;;;;43.00;14.40;;;;;;;-9.64;100.00;97213.16;5072430;28;20306;-60
2021/12/26 06:21:33;;;;;;;39.60;14.27;;;;;;;-9.60;100.00;97219.09;5063148;28;20352;-60
2021/12/26 06:24:20;;;;;;;39.33;14.87;;;;;;;-9.66;100.00;97219.97;5072190;28;20793;-60
2021/12/26 06:27:27;;;;;;;52.97;20.27;;;;;;;-9.81;100.00;97230.13;5071125;28;20283;-61
2021/12/26 06:30:14;;;;;;;55.53;21.23;;;;;;;-9.63;100.00;97224.19;5070634;28;20299;-60
2021/12/26 06:32:59;;;;;;;44.23;18.13;;;;;;;-9.45;100.00;97226.72;5072254;28;20401;-60
2021/12/26 06:35:44;;;;;;;51.00;19.27;;;;;;;-9.43;100.00;97232.66;5072922;28;20294;-60
2021/12/26 06:38:46;;;;;;;47.93;18.03;;;;;;;-9.49;100.00;97228.41;5071426;28;20310;-60
2021/12/26 06:41:33;;;;;;;44.73;17.40;;;;;;;-9.50;100.00;97233.50;5040411;28;20384;-61
2021/12/26 06:44:08;;;;;;;41.30;17.37;;;;;;;-9.42;100.00;97237.75;5073258;28;20763;-60
2021/12/26 06:46:53;;;;;;;59.60;18.97;;;;;;;-9.36;100.00;97235.19;5070016;28;20448;-60
2021/12/26 06:49:26;;;;;;;;;;;;;;;-9.38;100.00;97241.97;5071202;28;20279;-61
2021/12/26 06:51:53;;;;;;;57.10;20.07;;;;;;;-9.36;100.00;97245.41;5071679;28;19920;-61
2021/12/26 06:54:19;;;;;;;57.00;20.03;;;;;;;-9.26;100.00;97239.41;5071730;28;20324;-59
2021/12/26 06:56:46;;;;;;;59.20;22.50;;;;;;;-9.17;100.00;97241.09;5071145;28;20294;-59
2021/12/26 06:59:14;;;;;;;58.97;20.57;;;;;;;-9.22;100.00;97245.38;5072559;28;20301;-60
2021/12/26 07:01:43;;;;;;;58.87;21.67;;;;;;;-9.18;100.00;97242.81;5052795;28;20342;-59
2021/12/26 07:04:12;;;;;;;58.20;22.60;;;;;;;-9.13;100.00;97242.78;5071439;28;20287;-59
2021/12/26 07:06:39;;;;;;;71.90;24.50;;;;;;;-9.03;100.00;97237.69;5070833;28;20298;-60
2021/12/26 07:09:19;;;;;;;59.53;22.70;;;;;;;-8.87;100.00;97230.81;5071100;28;20771;-60
2021/12/26 07:11:46;;;;;;;62.30;22.07;;;;;;;-8.85;100.00;97234.22;5070931;28;20385;-60
2021/12/26 07:14:25;;;;;;;62.83;23.83;;;;;;;-8.77;100.00;97238.44;5071084;28;20299;-60
2021/12/26 07:16:53;;;;;;;61.83;23.40;;;;;;;-8.74;99.56;97238.44;5071322;28;20807;-59
2021/12/26 07:19:20;;;;;;;57.83;22.50;;;;;;;-8.65;99.39;97240.06;5068428;28;20377;-59
2021/12/26 07:21:48;;;;;;;74.70;24.93;;;;;;;-8.53;99.19;97237.47;5070618;28;20295;-59
2021/12/26 07:24:16;;;;;;;67.67;26.47;;;;;;;-8.41;98.79;97250.16;5070508;28;20291;-60
2021/12/26 07:26:43;;;;;;;56.93;24.57;;;;;;;-8.38;98.05;97242.50;5070650;28;20297;-60
2021/12/26 07:29:31;;;;;;;69.63;25.47;;;;;;;-8.27;97.58;97246.66;5070535;28;20287;-60
2021/12/26 07:31:58;;;;;;;68.60;27.00;;;;;;;-8.20;97.28;97250.88;5071738;28;20286;-60
2021/12/26 07:34:24;;;;;;;73.63;27.43;;;;;;;-8.10;96.79;97249.13;5070559;28;20753;-60
2021/12/26 07:36:51;;;;;;;63.60;26.50;;;;;;;-7.92;96.08;97243.91;5069929;28;20628;-65
2021/12/26 07:39:23;;;;;;;67.10;26.50;;;;;;;-7.93;95.22;97252.41;5069750;28;20295;-64
2021/12/26 07:41:50;;;;;;;68.03;26.07;;;;;;;-8.01;95.14;97249.91;5070813;28;20315;-64
2021/12/26 07:44:36;;;;;;;55.70;23.97;;;;;;;-8.00;95.17;97264.41;5069621;28;20629;-68
2021/12/26 07:47:21;;;;;;;68.30;26.87;;;;;;;-7.78;95.22;97259.97;5068684;28;20294;-70
2021/12/26 07:49:49;;;;;;;58.50;24.10;;;;;;;-7.78;94.75;97252.31;5068618;28;20372;-68
2021/12/26 07:52:39;;;;;;;58.63;25.67;;;;;;;-7.69;95.43;97257.34;5067720;28;20318;-68
2021/12/26 07:55:25;;;;;;;65.23;27.10;;;;;;;-7.57;95.06;97264.94;5068210;28;20290;-68
2021/12/26 07:58:10;;;;;;;69.63;25.57;;;;;;;-7.44;95.12;97264.81;5067613;28;20287;-71
2021/12/26 08:00:57;;;;;;;77.13;27.87;;;;;;;-7.40;94.38;97263.94;5068015;28;20293;-72
2021/12/26 08:03:37;;;;;;;74.73;30.17;;;;;;;-7.40;93.39;97266.50;5067769;28;20386;-72
2021/12/26 08:06:39;;;;;;;65.37;26.43;;;;;;;-7.47;92.62;97269.09;5067140;28;20305;-71
2021/12/26 08:09:07;;;;;;;74.70;28.67;;;;;;;-7.50;92.50;97264.03;5063727;28;20341;-72
2021/12/26 08:11:34;;;;;;;65.70;27.47;;;;;;;-7.36;91.99;97274.97;5069098;28;20287;-74
2021/12/26 08:14:02;;;;;;;73.40;30.43;;;;;;;-7.34;91.99;97275.81;5069848;28;20790;-73
2021/12/26 08:16:33;;;;;;;67.13;28.07;;;;;;;-7.28;91.25;97275.78;5070728;28;20390;-72
2021/12/26 08:19:01;;;;;;;53.10;24.10;;;;;;;-7.45;91.73;97265.69;5067348;28;20381;-71
2021/12/26 08:21:28;;;;;;;61.60;23.43;;;;;;;-7.44;91.96;97274.19;5069413;28;20300;-72
2021/12/26 08:23:54;;;;;;;55.13;22.60;;;;;;;-7.26;92.31;97274.03;5069840;28;20287;-71
2021/12/26 08:26:21;;;;;;;51.17;21.37;;;;;;;-7.17;92.16;97274.78;5068834;28;20275;-72
2021/12/26 08:28:48;;;;;;;60.87;26.17;;;;;;;-7.18;91.61;97277.38;5068556;28;20302;-72
2021/12/26 08:31:17;;;;;;;59.50;25.27;;;;;;;-7.12;91.68;97282.44;5068557;28;20801;-72
2021/12/26 08:33:45;;;;;;;63.57;23.73;;;;;;;-6.92;91.40;97288.19;5068780;28;20302;-72
2021/12/26 08:36:12;;;;;;;53.83;22.23;;;;;;;-6.74;91.12;97281.19;5068815;28;20282;-72
2021/12/26 08:38:39;;;;;;;58.67;25.40;;;;;;;-6.63;91.19;97283.63;5069685;28;20307;-73
2021/12/26 08:41:07;;;;;;;70.37;26.90;;;;;;;-6.48;90.69;97274.06;5069053;28;21111;-72
2021/12/26 08:43:34;;;;;;;60.70;22.87;;;;;;;-6.59;89.75;97277.59;5067310;28;20287;-73
2021/12/26 08:46:00;;;;;;;50.67;20.33;;;;;;;-6.40;90.32;97284.19;5069918;28;20287;-71
2021/12/26 08:48:28;;;;;;;51.00;20.73;;;;;;;-6.23;89.93;97287.41;5068657;28;20294;-72
2021/12/26 08:50:57;;;;;;;41.47;18.47;;;;;;;-6.17;89.68;97289.06;5067559;28;20290;-72
2021/12/26 08:53:24;;;;;;;48.07;17.20;;;;;;;-6.14;90.19;97278.78;5068699;28;20036;-72
2021/12/26 08:55:52;;;;;;;45.33;17.13;;;;;;;-6.18;90.15;97282.25;5068451;28;20294;-72
2021/12/26 08:58:19;;;;;;;38.63;15.13;;;;;;;-6.10;90.13;97283.00;5070088;28;20040;-71
2021/12/26 09:00:46;;;;;;;34.73;15.00;;;;;;;-5.98;89.25;97281.13;5068953;28;20512;-72
2021/12/26 09:03:13;;;;;;;41.53;16.20;;;;;;;-6.11;89.07;97282.13;5068404;28;20547;-72
2021/12/26 09:05:40;;;;;;;42.63;15.57;;;;;;;-6.22;89.11;97276.28;5071741;28;20295;-72
2021/12/26 09:08:10;;;;;;;31.80;12.47;;;;;;;-6.24;89.30;97283.16;5072467;28;20805;-72
2021/12/26 09:10:39;;;;;;;38.77;15.17;;;;;;;-6.15;88.33;97277.09;5070287;28;20041;-73
2021/12/26 09:13:06;;;;;;;33.90;15.50;;;;;;;-6.04;87.98;97273.50;5070923;28;20681;-72
2021/12/26 09:15:33;;;;;;;35.47;12.80;;;;;;;-5.98;88.67;97270.00;5072247;28;20087;-72
2021/12/26 09:18:00;;;;;;;35.90;13.87;;;;;;;-5.96;88.54;97266.53;5072384;28;20041;-73
2021/12/26 09:20:27;;;;;;;26.47;12.60;;;;;;;-5.91;88.25;97263.94;5072595;28;20040;-72
2021/12/26 09:22:55;;;;;;;48.00;17.70;;;;;;;-5.78;87.77;97257.78;5072145;28;20044;-72
2021/12/26 09:25:24;;;;;;;32.17;13.17;;;;;;;-5.91;87.01;97258.81;5073184;28;20386;-72
2021/12/26 09:27:51;;;;;;;31.50;13.43;;;;;;;-6.01;86.42;97262.34;5072162;28;20078;-72
2021/12/26 09:30:18;;;;;;;31.40;14.53;;;;;;;-6.02;87.18;97258.09;5072122;28;20036;-72
2021/12/26 09:32:45;;;;;;;29.00;11.40;;;;;;;-5.96;87.89;97263.16;5071848;28;20396;-72
2021/12/26 09:35:13;;;;;;;31.47;12.50;;;;;;;-5.87;87.51;97256.19;5073017;28;20086;-72
2021/12/26 09:37:40;;;;;;;31.60;11.67;;;;;;;-5.72;86.83;97255.97;5071398;28;20048;-72
2021/12/26 09:40:08;;;;;;;24.23;9.40;;;;;;;-5.79;86.30;97251.78;5070455;28;20128;-72
2021/12/26 09:42:37;;;;;;;34.10;13.17;;;;;;;-5.69;85.97;97248.22;5072263;28;20048;-72
2021/12/26 09:45:05;;;;;;;67.03;25.00;;;;;;;-5.77;85.59;97246.63;5072317;28;20036;-72
2021/12/26 09:47:32;;;;;;;70.47;28.90;;;;;;;-5.85;84.34;97246.75;5072835;28;20106;-72
2021/12/26 09:50:02;;;;;;;93.57;34.07;;;;;;;-5.76;84.35;97243.19;5071518;28;20452;-72
2021/12/26 09:52:28;;;;;;;75.00;29.90;;;;;;;-5.47;83.56;97248.72;5072690;28;20041;-73
2021/12/26 09:54:55;;;;;;;79.63;29.73;;;;;;;-5.38;82.70;97254.56;5072655;28;20389;-74
2021/12/26 09:57:23;;;;;;;67.50;27.83;;;;;;;-5.34;82.05;97247.69;5073001;28;20037;-72
2021/12/26 09:59:52;;;;;;;83.83;34.07;;;;;;;-5.31;81.00;97245.88;5073003;28;20044;-72
2021/12/26 10:02:19;;;;;;;72.73;31.90;;;;;;;-5.36;81.41;97245.13;5072901;28;20059;-72
2021/12/26 10:04:48;;;;;;;79.40;30.87;;;;;;;-5.48;80.89;97253.00;5072847;28;20125;-72
2021/12/26 10:07:16;;;;;;;83.03;33.03;;;;;;;-5.45;80.35;97252.13;5072533;28;20045;-72
2021/12/26 10:09:45;;;;;;;90.90;34.80;;;;;;;-5.34;80.16;97253.63;5072783;28;20408;-73
2021/12/26 10:12:13;;;;;;;60.40;25.20;;;;;;;-5.42;78.71;97252.91;5072461;28;20080;-72
2021/12/26 10:14:43;;;;;;;73.10;28.77;;;;;;;-5.53;78.27;97254.81;5072502;28;20039;-72
2021/12/26 10:17:14;;;;;;;58.47;25.97;;;;;;;-5.84;78.72;97253.59;5071407;28;20063;-69
2021/12/26 10:19:43;;;;;;;67.47;28.90;;;;;;;-5.82;78.53;97253.56;5071045;28;20500;-73
2021/12/26 10:22:11;;;;;;;77.77;32.07;;;;;;;-5.68;78.37;97246.50;5072270;28;20040;-73
2021/12/26 10:24:40;;;;;;;83.23;30.57;;;;;;;-5.49;77.71;97243.63;5072845;28;20131;-59
2021/12/26 10:27:09;;;;;;;74.83;30.47;;;;;;;-5.11;77.93;97243.00;5072897;28;20052;-60
2021/12/26 10:29:40;;;;;;;95.60;38.40;;;;;;;-5.02;76.11;97233.41;5072935;28;20109;-58
2021/12/26 10:32:10;;;;;;;89.40;36.23;;;;;;;-5.42;76.47;97241.78;5072776;28;20516;-59
2021/12/26 10:34:42;;;;;;;100.47;37.60;;;;;;;-5.87;76.01;97248.50;5072301;28;20040;-56
2021/12/26 10:37:12;;;;;;;93.07;38.88;;;;;;;-5.84;76.18;97245.91;5071862;28;20051;-59
2021/12/26 10:39:42;;;;;;;93.73;38.17;;;;;;;-5.80;76.65;97250.09;5071951;28;20064;-58
2021/12/26 10:42:13;;;;;;;120.20;46.87;;;;;;;-5.61;75.57;97240.41;5071558;28;20429;-59
2021/12/26 10:44:43;;;;;;;107.97;43.20;;;;;;;-5.42;75.07;97236.66;5072491;28;20117;-59
2021/12/26 10:47:12;;;;;;;108.63;43.20;;;;;;;-5.38;75.02;97243.44;5072275;28;20051;-59
2021/12/26 10:49:44;;;;;;;102.50;40.67;;;;;;;-5.39;74.08;97237.47;5072632;28;20112;-60
2021/12/26 10:52:18;;;;;;;88.10;40.07;;;;;;;-5.46;74.72;97238.44;5070509;28;20049;-59
2021/12/26 10:54:50;;;;;;;94.57;39.93;;;;;;;-5.67;74.00;97249.03;5071097;28;20045;-59
2021/12/26 10:57:21;;;;;;;113.77;40.77;;;;;;;-5.83;74.33;97242.44;5072658;28;20131;-59
2021/12/26 10:59:59;;;;;;;110.67;43.67;;;;;;;-5.87;75.30;97256.19;5072275;28;20075;-59
2021/12/26 11:02:28;;;;;;;96.57;38.73;;;;;;;-6.06;76.12;97256.47;5071865;28;20064;-59
2021/12/26 11:05:03;;;;;;;115.53;42.23;;;;;;;-6.24;76.04;97249.00;5072456;28;20556;-59
2021/12/26 11:07:40;;;;;;;106.73;41.57;;;;;;;-6.38;76.83;97252.63;5072141;28;20125;-60
2021/12/26 11:10:10;;;;;;;85.90;33.33;;;;;;;-6.20;76.88;97253.22;5072191;28;20055;-59
2021/12/26 11:12:44;;;;;;;101.60;42.53;;;;;;;-6.21;76.92;97256.66;5071405;28;20465;-59
2021/12/26 11:15:14;;;;;;;116.90;46.23;;;;;;;-6.10;76.73;97259.94;5072166;28;20397;-64
2021/12/26 11:17:44;;;;;;;123.17;46.47;;;;;;;-6.02;76.40;97256.41;5071362;28;20052;-70
2021/12/26 11:20:26;;;;;;;118.77;50.97;;;;;;;-5.89;76.31;97249.41;5071148;28;20044;-69
2021/12/26 11:22:54;;;;;;;88.97;36.47;;;;;;;-6.07;76.20;97265.03;5071487;28;20216;-69
2021/12/26 11:25:21;;;;;;;55.00;21.77;;;;;;;-6.22;76.67;97249.84;5070025;28;20045;-69
2021/12/26 11:27:48;;;;;;;34.27;15.77;;;;;;;-6.24;77.17;97247.31;5070688;28;20056;-69
2021/12/26 11:30:15;;;;;;;38.47;14.43;;;;;;;-6.18;78.23;97252.34;5070781;28;20044;-69
2021/12/26 11:32:43;;;;;;;40.30;15.03;;;;;;;-6.07;77.52;97258.16;5071014;28;20400;-69